sensor_id;sensor_type;location;lat;lon;timestamp;temperature;humidity
48264;DHT22;34086;51.076;13.722;2023-04-30T00:00:03;11.30;99.90
48264;DHT22;34086;51.076;13.722;2023-04-30T00:01:10;11.30;99.90
48264;DHT22;34086;51.076;13.722;2023-04-30T00:02:11;11.30;99.90
48264;DHT22;34086;51.076;13.722;2023-04-30T00:03:12;11.30;99.90
48264;DHT22;34086;51.076;13.722;2023-04-30T00:04:12;11.20;99.90
48264;DHT22;34086;51.076;13.722;2023-04-30T00:05:13;11.20;99.90
48264;DHT22;34086;51.076;13.722;2023-04-30T00:06:13;11.20;99.90
48264;DHT22;34086;51.076;13.722;2023-04-30T00:07:14;11.20;99.90
48264;DHT22;34086;51.076;13.722;2023-04-30T00:08:14;11.20;99.90
48264;DHT22;34086;51.076;13.722;2023-04-30T00:09:15;11.20;99.90
48264;DHT22;34086;51.076;13.722;2023-04-30T00:10:16;11.20;99.90
48264;DHT22;34086;51.076;13.722;2023-04-30T00:11:16;11.20;99.90
48264;DHT22;34086;51.076;13.722;2023-04-30T00:12:17;11.20;99.90
48264;DHT22;34086;51.076;13.722;2023-04-30T00:13:17;11.20;99.90
48264;DHT22;34086;51.076;13.722;2023-04-30T00:14:18;11.20;99.90
48264;DHT22;34086;51.076;13.722;2023-04-30T00:15:18;11.20;99.90
48264;DHT22;34086;51.076;13.722;2023-04-30T00:16:19;11.20;99.90
48264;DHT22;34086;51.076;13.722;2023-04-30T00:17:20;11.20;99.90
48264;DHT22;34086;51.076;13.722;2023-04-30T00:18:20;11.20;99.90
48264;DHT22;34086;51.076;13.722;2023-04-30T00:19:21;11.10;99.90
48264;DHT22;34086;51.076;13.722;2023-04-30T00:20:22;11.20;99.90
48264;DHT22;34086;51.076;13.722;2023-04-30T00:21:25;11.20;99.90
48264;DHT22;34086;51.076;13.722;2023-04-30T00:22:27;11.10;99.90
48264;DHT22;34086;51.076;13.722;2023-04-30T00:23:27;11.10;99.90
48264;DHT22;34086;51.076;13.722;2023-04-30T00:24:28;11.10;99.90
48264;DHT22;34086;51.076;13.722;2023-04-30T00:25:28;11.10;99.90
48264;DHT22;34086;51.076;13.722;2023-04-30T00:26:29;11.10;99.90
48264;DHT22;34086;51.076;13.722;2023-04-30T00:27:30;11.10;99.90
48264;DHT22;34086;51.076;13.722;2023-04-30T00:28:31;11.10;99.90
48264;DHT22;34086;51.076;13.722;2023-04-30T00:29:31;11.10;99.90
48264;DHT22;34086;51.076;13.722;2023-04-30T00:30:32;11.10;99.90
48264;DHT22;34086;51.076;13.722;2023-04-30T00:31:33;11.10;99.90
48264;DHT22;34086;51.076;13.722;2023-04-30T00:32:33;11.10;99.90
48264;DHT22;34086;51.076;13.722;2023-04-30T00:33:34;11.10;99.90
48264;DHT22;34086;51.076;13.722;2023-04-30T00:34:35;11.10;99.90
48264;DHT22;34086;51.076;13.722;2023-04-30T00:35:35;11.10;99.90
48264;DHT22;34086;51.076;13.722;2023-04-30T00:36:36;11.10;99.90
48264;DHT22;34086;51.076;13.722;2023-04-30T00:37:37;11.00;99.90
48264;DHT22;34086;51.076;13.722;2023-04-30T00:38:38;11.00;99.90
48264;DHT22;34086;51.076;13.722;2023-04-30T00:39:39;11.00;99.90
48264;DHT22;34086;51.076;13.722;2023-04-30T00:40:40;11.00;99.90
48264;DHT22;34086;51.076;13.722;2023-04-30T00:41:43;10.90;99.90
48264;DHT22;34086;51.076;13.722;2023-04-30T00:42:45;10.90;99.90
48264;DHT22;34086;51.076;13.722;2023-04-30T00:43:46;10.90;99.90
48264;DHT22;34086;51.076;13.722;2023-04-30T00:44:46;10.80;99.90
48264;DHT22;34086;51.076;13.722;2023-04-30T00:45:47;10.80;99.90
48264;DHT22;34086;51.076;13.722;2023-04-30T00:46:47;10.80;99.90
48264;DHT22;34086;51.076;13.722;2023-04-30T00:47:48;10.80;99.90
48264;DHT22;34086;51.076;13.722;2023-04-30T00:48:49;10.70;99.90
48264;DHT22;34086;51.076;13.722;2023-04-30T00:49:50;10.70;99.90
48264;DHT22;34086;51.076;13.722;2023-04-30T00:50:51;10.70;99.90
48264;DHT22;34086;51.076;13.722;2023-04-30T00:51:52;10.60;99.90
48264;DHT22;34086;51.076;13.722;2023-04-30T00:52:53;10.60;99.90
48264;DHT22;34086;51.076;13.722;2023-04-30T00:53:54;10.50;99.90
48264;DHT22;34086;51.076;13.722;2023-04-30T00:54:55;10.60;99.90
48264;DHT22;34086;51.076;13.722;2023-04-30T00:55:56;10.50;99.90
48264;DHT22;34086;51.076;13.722;2023-04-30T00:56:59;10.50;99.90
48264;DHT22;34086;51.076;13.722;2023-04-30T00:58:00;10.50;99.90
48264;DHT22;34086;51.076;13.722;2023-04-30T00:59:01;10.40;99.90
48264;DHT22;34086;51.076;13.722;2023-04-30T01:00:01;10.40;99.90
48264;DHT22;34086;51.076;13.722;2023-04-30T01:01:03;10.40;99.90
48264;DHT22;34086;51.076;13.722;2023-04-30T01:02:04;10.30;99.90
48264;DHT22;34086;51.076;13.722;2023-04-30T01:03:05;10.30;99.90
48264;DHT22;34086;51.076;13.722;2023-04-30T01:04:06;10.30;99.90
48264;DHT22;34086;51.076;13.722;2023-04-30T01:05:07;10.20;99.90
48264;DHT22;34086;51.076;13.722;2023-04-30T01:06:08;10.20;99.90
48264;DHT22;34086;51.076;13.722;2023-04-30T01:07:08;10.10;99.90
48264;DHT22;34086;51.076;13.722;2023-04-30T01:08:09;10.10;99.90
48264;DHT22;34086;51.076;13.722;2023-04-30T01:09:11;10.10;99.90
48264;DHT22;34086;51.076;13.722;2023-04-30T01:10:12;10.00;99.90
48264;DHT22;34086;51.076;13.722;2023-04-30T01:11:33;10.00;99.90
48264;DHT22;34086;51.076;13.722;2023-04-30T01:12:45;10.00;99.90
48264;DHT22;34086;51.076;13.722;2023-04-30T01:14:03;10.00;99.90
48264;DHT22;34086;51.076;13.722;2023-04-30T01:15:24;9.90;99.90
48264;DHT22;34086;51.076;13.722;2023-04-30T01:16:29;9.90;99.90
48264;DHT22;34086;51.076;13.722;2023-04-30T01:17:40;9.90;99.90
48264;DHT22;34086;51.076;13.722;2023-04-30T01:18:48;9.80;99.90
48264;DHT22;34086;51.076;13.722;2023-04-30T01:19:51;9.80;99.90
48264;DHT22;34086;51.076;13.722;2023-04-30T01:21:01;9.80;99.90
48264;DHT22;34086;51.076;13.722;2023-04-30T01:22:04;9.70;99.90
48264;DHT22;34086;51.076;13.722;2023-04-30T01:27:27;9.70;99.90
48264;DHT22;34086;51.076;13.722;2023-04-30T01:28:31;9.70;99.90
48264;DHT22;34086;51.076;13.722;2023-04-30T01:29:35;9.60;99.90
48264;DHT22;34086;51.076;13.722;2023-04-30T01:30:38;9.60;99.90
48264;DHT22;34086;51.076;13.722;2023-04-30T01:31:42;9.70;99.90
48264;DHT22;34086;51.076;13.722;2023-04-30T01:32:43;9.60;99.90
48264;DHT22;34086;51.076;13.722;2023-04-30T01:33:44;9.60;99.90
48264;DHT22;34086;51.076;13.722;2023-04-30T01:34:45;9.60;99.90
48264;DHT22;34086;51.076;13.722;2023-04-30T01:37:30;9.60;99.90
48264;DHT22;34086;51.076;13.722;2023-04-30T01:41:37;9.60;99.90
48264;DHT22;34086;51.076;13.722;2023-04-30T01:43:05;9.60;99.90
48264;DHT22;34086;51.076;13.722;2023-04-30T01:44:23;9.50;99.90
48264;DHT22;34086;51.076;13.722;2023-04-30T01:46:29;9.50;99.90
48264;DHT22;34086;51.076;13.722;2023-04-30T01:48:52;9.40;99.90
48264;DHT22;34086;51.076;13.722;2023-04-30T01:49:57;9.40;99.90
48264;DHT22;34086;51.076;13.722;2023-04-30T01:51:21;9.40;99.90
48264;DHT22;34086;51.076;13.722;2023-04-30T01:52:38;9.40;99.90
48264;DHT22;34086;51.076;13.722;2023-04-30T01:53:42;9.40;99.90
48264;DHT22;34086;51.076;13.722;2023-04-30T01:56:05;9.30;99.90
48264;DHT22;34086;51.076;13.722;2023-04-30T01:57:20;9.30;99.90
48264;DHT22;34086;51.076;13.722;2023-04-30T01:58:23;9.30;99.90
48264;DHT22;34086;51.076;13.722;2023-04-30T01:59:25;9.20;99.90
48264;DHT22;34086;51.076;13.722;2023-04-30T02:00:27;9.20;99.90
48264;DHT22;34086;51.076;13.722;2023-04-30T02:01:31;9.20;99.90
48264;DHT22;34086;51.076;13.722;2023-04-30T02:02:32;9.20;99.90
48264;DHT22;34086;51.076;13.722;2023-04-30T02:03:32;9.20;99.90
48264;DHT22;34086;51.076;13.722;2023-04-30T02:04:33;9.10;99.90
48264;DHT22;34086;51.076;13.722;2023-04-30T02:05:34;9.10;99.90
48264;DHT22;34086;51.076;13.722;2023-04-30T02:06:34;9.10;99.90
48264;DHT22;34086;51.076;13.722;2023-04-30T02:07:40;9.10;99.90
48264;DHT22;34086;51.076;13.722;2023-04-30T02:08:42;9.10;99.90
48264;DHT22;34086;51.076;13.722;2023-04-30T02:09:42;9.10;99.90
48264;DHT22;34086;51.076;13.722;2023-04-30T02:10:43;9.10;99.90
48264;DHT22;34086;51.076;13.722;2023-04-30T02:11:43;9.00;99.90
48264;DHT22;34086;51.076;13.722;2023-04-30T02:12:45;9.00;99.90
48264;DHT22;34086;51.076;13.722;2023-04-30T02:13:45;9.00;99.90
48264;DHT22;34086;51.076;13.722;2023-04-30T02:14:47;9.00;99.90
48264;DHT22;34086;51.076;13.722;2023-04-30T02:15:47;9.00;99.90
48264;DHT22;34086;51.076;13.722;2023-04-30T02:16:48;8.90;99.90
48264;DHT22;34086;51.076;13.722;2023-04-30T02:17:48;8.90;99.90
48264;DHT22;34086;51.076;13.722;2023-04-30T02:18:50;8.90;99.90
48264;DHT22;34086;51.076;13.722;2023-04-30T02:19:51;8.90;99.90
48264;DHT22;34086;51.076;13.722;2023-04-30T02:20:51;8.90;99.90
48264;DHT22;34086;51.076;13.722;2023-04-30T02:21:52;8.80;99.90
48264;DHT22;34086;51.076;13.722;2023-04-30T02:22:52;8.80;99.90
48264;DHT22;34086;51.076;13.722;2023-04-30T02:23:53;8.80;99.90
48264;DHT22;34086;51.076;13.722;2023-04-30T02:24:54;8.80;99.90
48264;DHT22;34086;51.076;13.722;2023-04-30T02:25:55;8.80;99.90
48264;DHT22;34086;51.076;13.722;2023-04-30T02:26:56;8.80;99.90
48264;DHT22;34086;51.076;13.722;2023-04-30T02:27:56;8.80;99.90
48264;DHT22;34086;51.076;13.722;2023-04-30T02:28:57;8.80;99.90
48264;DHT22;34086;51.076;13.722;2023-04-30T02:29:59;8.80;99.90
48264;DHT22;34086;51.076;13.722;2023-04-30T02:30:59;8.80;99.90
48264;DHT22;34086;51.076;13.722;2023-04-30T02:32:00;8.70;99.90
48264;DHT22;34086;51.076;13.722;2023-04-30T02:33:01;8.80;99.90
48264;DHT22;34086;51.076;13.722;2023-04-30T02:34:03;8.80;99.90
48264;DHT22;34086;51.076;13.722;2023-04-30T02:35:04;8.70;99.90
48264;DHT22;34086;51.076;13.722;2023-04-30T02:36:05;8.80;99.90
48264;DHT22;34086;51.076;13.722;2023-04-30T02:37:06;8.70;99.90
48264;DHT22;34086;51.076;13.722;2023-04-30T02:38:07;8.70;99.90
48264;DHT22;34086;51.076;13.722;2023-04-30T02:39:07;8.70;99.90
48264;DHT22;34086;51.076;13.722;2023-04-30T02:40:08;8.80;99.90
48264;DHT22;34086;51.076;13.722;2023-04-30T02:41:09;8.80;99.90
48264;DHT22;34086;51.076;13.722;2023-04-30T02:42:10;8.70;99.90
48264;DHT22;34086;51.076;13.722;2023-04-30T02:43:11;8.70;99.90
48264;DHT22;34086;51.076;13.722;2023-04-30T02:44:12;8.70;99.90
48264;DHT22;34086;51.076;13.722;2023-04-30T02:45:12;8.70;99.90
48264;DHT22;34086;51.076;13.722;2023-04-30T02:46:14;8.70;99.90
48264;DHT22;34086;51.076;13.722;2023-04-30T02:47:14;8.60;99.90
48264;DHT22;34086;51.076;13.722;2023-04-30T02:48:15;8.60;99.90
48264;DHT22;34086;51.076;13.722;2023-04-30T02:49:16;8.60;99.90
48264;DHT22;34086;51.076;13.722;2023-04-30T02:50:17;8.60;99.90
48264;DHT22;34086;51.076;13.722;2023-04-30T02:51:17;8.50;99.90
48264;DHT22;34086;51.076;13.722;2023-04-30T02:52:18;8.50;99.90
48264;DHT22;34086;51.076;13.722;2023-04-30T02:53:19;8.50;99.90
48264;DHT22;34086;51.076;13.722;2023-04-30T02:54:19;8.50;99.90
48264;DHT22;34086;51.076;13.722;2023-04-30T02:55:20;8.40;99.90
48264;DHT22;34086;51.076;13.722;2023-04-30T02:56:20;8.40;99.90
48264;DHT22;34086;51.076;13.722;2023-04-30T02:57:21;8.40;99.90
48264;DHT22;34086;51.076;13.722;2023-04-30T02:58:22;8.40;99.90
48264;DHT22;34086;51.076;13.722;2023-04-30T02:59:22;8.40;99.90
48264;DHT22;34086;51.076;13.722;2023-04-30T03:00:23;8.30;99.90
48264;DHT22;34086;51.076;13.722;2023-04-30T03:01:23;8.30;99.90
48264;DHT22;34086;51.076;13.722;2023-04-30T03:02:24;8.30;99.90
48264;DHT22;34086;51.076;13.722;2023-04-30T03:03:25;8.20;99.90
48264;DHT22;34086;51.076;13.722;2023-04-30T03:04:25;8.20;99.90
48264;DHT22;34086;51.076;13.722;2023-04-30T03:05:27;8.20;99.90
48264;DHT22;34086;51.076;13.722;2023-04-30T03:06:28;8.10;99.90
48264;DHT22;34086;51.076;13.722;2023-04-30T03:07:28;8.10;99.90
48264;DHT22;34086;51.076;13.722;2023-04-30T03:08:29;8.10;99.90
48264;DHT22;34086;51.076;13.722;2023-04-30T03:09:29;8.10;99.90
48264;DHT22;34086;51.076;13.722;2023-04-30T03:10:31;8.10;99.90
48264;DHT22;34086;51.076;13.722;2023-04-30T03:11:32;8.10;99.90
48264;DHT22;34086;51.076;13.722;2023-04-30T03:12:33;8.10;99.90
48264;DHT22;34086;51.076;13.722;2023-04-30T03:13:33;8.00;99.90
48264;DHT22;34086;51.076;13.722;2023-04-30T03:14:34;8.00;99.90
48264;DHT22;34086;51.076;13.722;2023-04-30T03:15:34;8.00;99.90
48264;DHT22;34086;51.076;13.722;2023-04-30T03:16:35;8.00;99.90
48264;DHT22;34086;51.076;13.722;2023-04-30T03:17:35;8.00;99.90
48264;DHT22;34086;51.076;13.722;2023-04-30T03:18:36;8.00;99.90
48264;DHT22;34086;51.076;13.722;2023-04-30T03:19:37;8.00;99.90
48264;DHT22;34086;51.076;13.722;2023-04-30T03:20:37;8.00;99.90
48264;DHT22;34086;51.076;13.722;2023-04-30T03:21:38;8.00;99.90
48264;DHT22;34086;51.076;13.722;2023-04-30T03:22:38;8.00;99.90
48264;DHT22;34086;51.076;13.722;2023-04-30T03:23:39;7.90;99.90
48264;DHT22;34086;51.076;13.722;2023-04-30T03:24:39;7.90;99.90
48264;DHT22;34086;51.076;13.722;2023-04-30T03:25:40;7.90;99.90
48264;DHT22;34086;51.076;13.722;2023-04-30T03:26:41;7.90;99.90
48264;DHT22;34086;51.076;13.722;2023-04-30T03:27:42;7.90;99.90
48264;DHT22;34086;51.076;13.722;2023-04-30T03:28:42;7.90;99.90
48264;DHT22;34086;51.076;13.722;2023-04-30T03:29:43;7.90;99.90
48264;DHT22;34086;51.076;13.722;2023-04-30T03:30:43;7.80;99.90
48264;DHT22;34086;51.076;13.722;2023-04-30T03:31:44;7.80;99.90
48264;DHT22;34086;51.076;13.722;2023-04-30T03:32:45;7.80;99.90
48264;DHT22;34086;51.076;13.722;2023-04-30T03:33:45;7.80;99.90
48264;DHT22;34086;51.076;13.722;2023-04-30T03:34:46;7.80;99.90
48264;DHT22;34086;51.076;13.722;2023-04-30T03:35:46;7.70;99.90
48264;DHT22;34086;51.076;13.722;2023-04-30T03:36:48;7.70;99.90
48264;DHT22;34086;51.076;13.722;2023-04-30T03:37:48;7.70;99.90
48264;DHT22;34086;51.076;13.722;2023-04-30T03:38:49;7.70;99.90
48264;DHT22;34086;51.076;13.722;2023-04-30T03:39:50;7.70;99.90
48264;DHT22;34086;51.076;13.722;2023-04-30T03:40:50;7.70;99.90
48264;DHT22;34086;51.076;13.722;2023-04-30T03:41:51;7.70;99.90
48264;DHT22;34086;51.076;13.722;2023-04-30T03:42:51;7.70;99.90
48264;DHT22;34086;51.076;13.722;2023-04-30T03:43:52;7.70;99.90
48264;DHT22;34086;51.076;13.722;2023-04-30T03:44:53;7.70;99.90
48264;DHT22;34086;51.076;13.722;2023-04-30T03:45:54;7.70;99.90
48264;DHT22;34086;51.076;13.722;2023-04-30T03:46:55;7.70;99.90
48264;DHT22;34086;51.076;13.722;2023-04-30T03:47:55;7.70;99.90
48264;DHT22;34086;51.076;13.722;2023-04-30T03:48:56;7.70;99.90
48264;DHT22;34086;51.076;13.722;2023-04-30T03:49:56;7.70;99.90
48264;DHT22;34086;51.076;13.722;2023-04-30T03:50:57;7.70;99.90
48264;DHT22;34086;51.076;13.722;2023-04-30T03:51:58;7.80;99.90
48264;DHT22;34086;51.076;13.722;2023-04-30T03:52:59;7.80;99.90
48264;DHT22;34086;51.076;13.722;2023-04-30T03:53:59;7.80;99.90
48264;DHT22;34086;51.076;13.722;2023-04-30T03:55:00;7.80;99.90
48264;DHT22;34086;51.076;13.722;2023-04-30T03:56:01;7.80;99.90
48264;DHT22;34086;51.076;13.722;2023-04-30T03:57:02;7.80;99.90
48264;DHT22;34086;51.076;13.722;2023-04-30T03:58:07;7.80;99.90
48264;DHT22;34086;51.076;13.722;2023-04-30T03:59:07;7.80;99.90
48264;DHT22;34086;51.076;13.722;2023-04-30T04:00:09;7.80;99.90
48264;DHT22;34086;51.076;13.722;2023-04-30T04:01:21;7.90;99.90
48264;DHT22;34086;51.076;13.722;2023-04-30T04:02:21;7.80;99.90
48264;DHT22;34086;51.076;13.722;2023-04-30T04:03:22;7.90;99.90
48264;DHT22;34086;51.076;13.722;2023-04-30T04:04:23;7.90;99.90
48264;DHT22;34086;51.076;13.722;2023-04-30T04:05:23;7.80;99.90
48264;DHT22;34086;51.076;13.722;2023-04-30T04:06:24;7.80;99.90
48264;DHT22;34086;51.076;13.722;2023-04-30T04:07:26;7.80;99.90
48264;DHT22;34086;51.076;13.722;2023-04-30T04:08:26;7.80;99.90
48264;DHT22;34086;51.076;13.722;2023-04-30T04:09:28;7.80;99.90
48264;DHT22;34086;51.076;13.722;2023-04-30T04:10:28;7.80;99.90
48264;DHT22;34086;51.076;13.722;2023-04-30T04:11:29;7.80;99.90
48264;DHT22;34086;51.076;13.722;2023-04-30T04:12:30;7.80;99.90
48264;DHT22;34086;51.076;13.722;2023-04-30T04:13:31;7.80;99.90
48264;DHT22;34086;51.076;13.722;2023-04-30T04:14:32;7.80;99.90
48264;DHT22;34086;51.076;13.722;2023-04-30T04:15:33;7.90;99.90
48264;DHT22;34086;51.076;13.722;2023-04-30T04:16:35;7.90;99.90
48264;DHT22;34086;51.076;13.722;2023-04-30T04:17:36;7.90;99.90
48264;DHT22;34086;51.076;13.722;2023-04-30T04:18:36;7.90;99.90
48264;DHT22;34086;51.076;13.722;2023-04-30T04:19:37;7.90;99.90
48264;DHT22;34086;51.076;13.722;2023-04-30T04:20:38;7.90;99.90
48264;DHT22;34086;51.076;13.722;2023-04-30T04:21:38;7.90;99.90
48264;DHT22;34086;51.076;13.722;2023-04-30T04:22:45;7.90;99.90
48264;DHT22;34086;51.076;13.722;2023-04-30T04:23:45;7.90;99.90
48264;DHT22;34086;51.076;13.722;2023-04-30T04:24:46;7.90;99.90
48264;DHT22;34086;51.076;13.722;2023-04-30T04:25:51;7.90;99.90
48264;DHT22;34086;51.076;13.722;2023-04-30T04:26:54;8.00;99.90
48264;DHT22;34086;51.076;13.722;2023-04-30T04:27:55;7.90;99.90
48264;DHT22;34086;51.076;13.722;2023-04-30T04:28:56;8.00;99.90
48264;DHT22;34086;51.076;13.722;2023-04-30T04:29:56;8.10;99.90
48264;DHT22;34086;51.076;13.722;2023-04-30T04:30:57;8.20;99.90
48264;DHT22;34086;51.076;13.722;2023-04-30T04:31:58;8.30;99.90
48264;DHT22;34086;51.076;13.722;2023-04-30T04:33:05;8.60;99.90
48264;DHT22;34086;51.076;13.722;2023-04-30T04:34:06;8.90;99.90
48264;DHT22;34086;51.076;13.722;2023-04-30T04:35:07;9.10;99.90
48264;DHT22;34086;51.076;13.722;2023-04-30T04:36:07;9.20;99.90
48264;DHT22;34086;51.076;13.722;2023-04-30T04:37:08;9.30;99.90
48264;DHT22;34086;51.076;13.722;2023-04-30T04:38:09;9.50;99.90
48264;DHT22;34086;51.076;13.722;2023-04-30T04:39:10;9.70;99.90
48264;DHT22;34086;51.076;13.722;2023-04-30T04:40:11;9.90;99.90
48264;DHT22;34086;51.076;13.722;2023-04-30T04:41:13;10.10;99.90
48264;DHT22;34086;51.076;13.722;2023-04-30T04:42:14;10.30;99.90
48264;DHT22;34086;51.076;13.722;2023-04-30T04:43:18;10.50;99.90
48264;DHT22;34086;51.076;13.722;2023-04-30T04:44:20;10.60;99.90
48264;DHT22;34086;51.076;13.722;2023-04-30T04:45:21;10.80;99.90
48264;DHT22;34086;51.076;13.722;2023-04-30T04:46:24;11.00;99.90
48264;DHT22;34086;51.076;13.722;2023-04-30T04:47:25;11.10;99.90
48264;DHT22;34086;51.076;13.722;2023-04-30T04:48:26;11.00;99.90
48264;DHT22;34086;51.076;13.722;2023-04-30T04:49:27;11.20;99.90
48264;DHT22;34086;51.076;13.722;2023-04-30T04:50:28;11.20;99.90
48264;DHT22;34086;51.076;13.722;2023-04-30T04:51:28;11.20;99.90
48264;DHT22;34086;51.076;13.722;2023-04-30T04:52:29;11.10;99.90
48264;DHT22;34086;51.076;13.722;2023-04-30T04:53:29;11.10;99.90
48264;DHT22;34086;51.076;13.722;2023-04-30T04:54:30;11.20;99.90
48264;DHT22;34086;51.076;13.722;2023-04-30T04:55:30;11.40;99.90
48264;DHT22;34086;51.076;13.722;2023-04-30T04:56:31;11.50;99.90
48264;DHT22;34086;51.076;13.722;2023-04-30T04:57:32;11.70;99.90
48264;DHT22;34086;51.076;13.722;2023-04-30T04:58:33;11.90;99.90
48264;DHT22;34086;51.076;13.722;2023-04-30T04:59:33;12.00;99.90
48264;DHT22;34086;51.076;13.722;2023-04-30T05:00:34;12.20;99.90
48264;DHT22;34086;51.076;13.722;2023-04-30T05:01:35;12.30;99.90
48264;DHT22;34086;51.076;13.722;2023-04-30T05:02:35;12.50;99.90
48264;DHT22;34086;51.076;13.722;2023-04-30T05:03:36;12.60;99.90
48264;DHT22;34086;51.076;13.722;2023-04-30T05:04:36;12.70;99.90
48264;DHT22;34086;51.076;13.722;2023-04-30T05:05:37;12.70;99.90
48264;DHT22;34086;51.076;13.722;2023-04-30T05:06:38;12.70;99.90
48264;DHT22;34086;51.076;13.722;2023-04-30T05:07:39;12.70;99.90
48264;DHT22;34086;51.076;13.722;2023-04-30T05:08:39;12.70;99.90
48264;DHT22;34086;51.076;13.722;2023-04-30T05:09:40;12.80;99.90
48264;DHT22;34086;51.076;13.722;2023-04-30T05:10:41;12.90;99.90
48264;DHT22;34086;51.076;13.722;2023-04-30T05:11:41;12.80;99.90
48264;DHT22;34086;51.076;13.722;2023-04-30T05:12:43;12.60;99.90
48264;DHT22;34086;51.076;13.722;2023-04-30T05:13:43;12.40;99.90
48264;DHT22;34086;51.076;13.722;2023-04-30T05:14:44;12.50;99.90
48264;DHT22;34086;51.076;13.722;2023-04-30T05:15:44;12.60;99.90
48264;DHT22;34086;51.076;13.722;2023-04-30T05:16:45;12.80;99.90
48264;DHT22;34086;51.076;13.722;2023-04-30T05:17:45;12.70;99.90
48264;DHT22;34086;51.076;13.722;2023-04-30T05:18:46;12.60;99.90
48264;DHT22;34086;51.076;13.722;2023-04-30T05:19:46;12.80;99.90
48264;DHT22;34086;51.076;13.722;2023-04-30T05:20:49;12.90;99.90
48264;DHT22;34086;51.076;13.722;2023-04-30T05:21:50;12.90;99.90
48264;DHT22;34086;51.076;13.722;2023-04-30T05:22:51;12.80;99.90
48264;DHT22;34086;51.076;13.722;2023-04-30T05:23:51;12.50;99.90
48264;DHT22;34086;51.076;13.722;2023-04-30T05:24:52;12.30;99.90
48264;DHT22;34086;51.076;13.722;2023-04-30T05:25:52;12.10;99.90
48264;DHT22;34086;51.076;13.722;2023-04-30T05:26:53;12.00;99.90
48264;DHT22;34086;51.076;13.722;2023-04-30T05:27:54;11.90;99.90
48264;DHT22;34086;51.076;13.722;2023-04-30T05:28:54;11.80;99.90
48264;DHT22;34086;51.076;13.722;2023-04-30T05:29:55;11.80;99.90
48264;DHT22;34086;51.076;13.722;2023-04-30T05:30:55;11.70;99.90
48264;DHT22;34086;51.076;13.722;2023-04-30T05:31:56;11.60;99.90
48264;DHT22;34086;51.076;13.722;2023-04-30T05:32:56;11.50;99.90
48264;DHT22;34086;51.076;13.722;2023-04-30T05:33:57;11.70;99.90
48264;DHT22;34086;51.076;13.722;2023-04-30T05:34:58;11.80;99.90
48264;DHT22;34086;51.076;13.722;2023-04-30T05:35:58;11.80;99.90
48264;DHT22;34086;51.076;13.722;2023-04-30T05:36:59;11.70;99.90
48264;DHT22;34086;51.076;13.722;2023-04-30T05:38:01;11.60;99.90
48264;DHT22;34086;51.076;13.722;2023-04-30T05:39:02;11.80;99.90
48264;DHT22;34086;51.076;13.722;2023-04-30T05:40:04;11.80;99.90
48264;DHT22;34086;51.076;13.722;2023-04-30T05:41:05;11.90;99.90
48264;DHT22;34086;51.076;13.722;2023-04-30T05:42:06;11.90;99.90
48264;DHT22;34086;51.076;13.722;2023-04-30T05:43:06;12.20;99.90
48264;DHT22;34086;51.076;13.722;2023-04-30T05:44:07;12.30;99.90
48264;DHT22;34086;51.076;13.722;2023-04-30T05:45:09;12.20;99.90
48264;DHT22;34086;51.076;13.722;2023-04-30T05:46:11;11.90;99.90
48264;DHT22;34086;51.076;13.722;2023-04-30T05:47:12;12.00;99.90
48264;DHT22;34086;51.076;13.722;2023-04-30T05:48:12;12.00;99.90
48264;DHT22;34086;51.076;13.722;2023-04-30T05:49:13;12.00;99.90
48264;DHT22;34086;51.076;13.722;2023-04-30T05:50:13;11.90;99.90
48264;DHT22;34086;51.076;13.722;2023-04-30T05:51:14;11.80;99.90
48264;DHT22;34086;51.076;13.722;2023-04-30T05:52:15;11.80;99.90
48264;DHT22;34086;51.076;13.722;2023-04-30T05:53:16;11.90;99.90
48264;DHT22;34086;51.076;13.722;2023-04-30T05:54:17;11.80;99.90
48264;DHT22;34086;51.076;13.722;2023-04-30T05:55:18;11.90;99.90
48264;DHT22;34086;51.076;13.722;2023-04-30T05:56:19;11.80;99.90
48264;DHT22;34086;51.076;13.722;2023-04-30T05:57:21;11.70;99.90
48264;DHT22;34086;51.076;13.722;2023-04-30T05:58:21;11.70;99.90
48264;DHT22;34086;51.076;13.722;2023-04-30T05:59:22;11.70;99.90
48264;DHT22;34086;51.076;13.722;2023-04-30T06:00:22;11.70;99.90
48264;DHT22;34086;51.076;13.722;2023-04-30T06:01:24;11.60;99.90
48264;DHT22;34086;51.076;13.722;2023-04-30T06:02:24;11.20;99.90
48264;DHT22;34086;51.076;13.722;2023-04-30T06:03:25;11.00;99.90
48264;DHT22;34086;51.076;13.722;2023-04-30T06:04:25;10.90;99.90
48264;DHT22;34086;51.076;13.722;2023-04-30T06:05:26;10.80;99.90
48264;DHT22;34086;51.076;13.722;2023-04-30T06:06:26;10.70;99.90
48264;DHT22;34086;51.076;13.722;2023-04-30T06:07:27;10.50;99.90
48264;DHT22;34086;51.076;13.722;2023-04-30T06:08:28;10.50;99.90
48264;DHT22;34086;51.076;13.722;2023-04-30T06:09:29;10.50;99.90
48264;DHT22;34086;51.076;13.722;2023-04-30T06:10:29;10.50;99.90
48264;DHT22;34086;51.076;13.722;2023-04-30T06:11:30;10.50;99.90
48264;DHT22;34086;51.076;13.722;2023-04-30T06:12:31;10.60;99.90
48264;DHT22;34086;51.076;13.722;2023-04-30T06:13:31;10.60;99.90
48264;DHT22;34086;51.076;13.722;2023-04-30T06:14:32;10.70;99.90
48264;DHT22;34086;51.076;13.722;2023-04-30T06:15:32;10.60;99.90
48264;DHT22;34086;51.076;13.722;2023-04-30T06:16:33;10.50;99.90
48264;DHT22;34086;51.076;13.722;2023-04-30T06:17:34;10.50;99.90
48264;DHT22;34086;51.076;13.722;2023-04-30T06:18:34;10.50;99.90
48264;DHT22;34086;51.076;13.722;2023-04-30T06:19:35;10.50;99.90
48264;DHT22;34086;51.076;13.722;2023-04-30T06:20:38;10.60;99.90
48264;DHT22;34086;51.076;13.722;2023-04-30T06:21:38;10.50;99.90
48264;DHT22;34086;51.076;13.722;2023-04-30T06:22:39;10.50;99.90
48264;DHT22;34086;51.076;13.722;2023-04-30T06:23:40;10.50;99.90
48264;DHT22;34086;51.076;13.722;2023-04-30T06:24:41;10.50;99.90
48264;DHT22;34086;51.076;13.722;2023-04-30T06:25:41;10.40;99.90
48264;DHT22;34086;51.076;13.722;2023-04-30T06:26:42;10.30;99.90
48264;DHT22;34086;51.076;13.722;2023-04-30T06:27:42;10.30;99.90
48264;DHT22;34086;51.076;13.722;2023-04-30T06:28:43;10.30;99.90
48264;DHT22;34086;51.076;13.722;2023-04-30T06:29:44;10.20;99.90
48264;DHT22;34086;51.076;13.722;2023-04-30T06:30:44;10.10;99.90
48264;DHT22;34086;51.076;13.722;2023-04-30T06:31:45;10.10;99.90
48264;DHT22;34086;51.076;13.722;2023-04-30T06:32:45;10.10;99.90
48264;DHT22;34086;51.076;13.722;2023-04-30T06:33:46;10.10;99.90
48264;DHT22;34086;51.076;13.722;2023-04-30T06:34:47;10.20;99.90
48264;DHT22;34086;51.076;13.722;2023-04-30T06:35:47;10.20;99.90
48264;DHT22;34086;51.076;13.722;2023-04-30T06:36:50;10.20;99.90
48264;DHT22;34086;51.076;13.722;2023-04-30T06:37:50;10.10;99.90